sensor_id;sensor_type;location;lat;lon;timestamp;P1;durP1;ratioP1;P2;durP2;ratioP2
18364;SDS011;9309;52.126;11.616;2024-02-28T00:00:24;28.47;;;13.30;;
18364;SDS011;9309;52.126;11.616;2024-02-28T00:02:50;24.60;;;12.67;;
18364;SDS011;9309;52.126;11.616;2024-02-28T00:05:17;25.27;;;12.30;;
18364;SDS011;9309;52.126;11.616;2024-02-28T00:07:44;29.27;;;12.77;;
18364;SDS011;9309;52.126;11.616;2024-02-28T00:10:12;26.60;;;12.63;;
18364;SDS011;9309;52.126;11.616;2024-02-28T00:12:40;31.93;;;14.20;;
18364;SDS011;9309;52.126;11.616;2024-02-28T00:15:07;26.57;;;12.27;;
18364;SDS011;9309;52.126;11.616;2024-02-28T00:17:37;30.47;;;13.57;;
18364;SDS011;9309;52.126;11.616;2024-02-28T00:20:05;28.03;;;12.83;;
18364;SDS011;9309;52.126;11.616;2024-02-28T00:22:32;27.27;;;13.07;;
18364;SDS011;9309;52.126;11.616;2024-02-28T00:24:59;29.20;;;13.00;;
18364;SDS011;9309;52.126;11.616;2024-02-28T00:27:26;23.63;;;12.50;;
18364;SDS011;9309;52.126;11.616;2024-02-28T00:29:54;31.83;;;13.77;;
18364;SDS011;9309;52.126;11.616;2024-02-28T00:32:20;26.43;;;12.97;;
18364;SDS011;9309;52.126;11.616;2024-02-28T00:34:47;27.83;;;13.40;;
18364;SDS011;9309;52.126;11.616;2024-02-28T00:37:14;29.37;;;13.23;;
18364;SDS011;9309;52.126;11.616;2024-02-28T00:39:40;31.30;;;13.20;;
18364;SDS011;9309;52.126;11.616;2024-02-28T00:42:07;32.73;;;13.93;;
18364;SDS011;9309;52.126;11.616;2024-02-28T00:44:34;29.73;;;14.33;;
18364;SDS011;9309;52.126;11.616;2024-02-28T00:47:01;34.33;;;13.63;;
18364;SDS011;9309;52.126;11.616;2024-02-28T00:49:28;24.53;;;12.33;;
18364;SDS011;9309;52.126;11.616;2024-02-28T00:51:55;27.50;;;12.67;;
18364;SDS011;9309;52.126;11.616;2024-02-28T00:54:21;30.67;;;13.60;;
18364;SDS011;9309;52.126;11.616;2024-02-28T00:56:49;31.47;;;13.87;;
18364;SDS011;9309;52.126;11.616;2024-02-28T00:59:15;29.10;;;12.87;;
18364;SDS011;9309;52.126;11.616;2024-02-28T01:01:42;27.20;;;14.83;;
18364;SDS011;9309;52.126;11.616;2024-02-28T01:04:10;31.17;;;14.43;;
18364;SDS011;9309;52.126;11.616;2024-02-28T01:06:36;30.83;;;14.83;;
18364;SDS011;9309;52.126;11.616;2024-02-28T01:09:04;33.33;;;15.63;;
18364;SDS011;9309;52.126;11.616;2024-02-28T01:11:30;34.17;;;15.57;;
18364;SDS011;9309;52.126;11.616;2024-02-28T01:13:57;39.53;;;16.67;;
18364;SDS011;9309;52.126;11.616;2024-02-28T01:16:24;33.67;;;15.50;;
18364;SDS011;9309;52.126;11.616;2024-02-28T01:18:52;37.33;;;16.27;;
18364;SDS011;9309;52.126;11.616;2024-02-28T01:21:20;35.27;;;15.63;;
18364;SDS011;9309;52.126;11.616;2024-02-28T01:23:47;30.07;;;13.83;;
18364;SDS011;9309;52.126;11.616;2024-02-28T01:26:14;30.53;;;13.37;;
18364;SDS011;9309;52.126;11.616;2024-02-28T01:28:40;28.97;;;12.60;;
18364;SDS011;9309;52.126;11.616;2024-02-28T01:31:08;27.97;;;12.70;;
18364;SDS011;9309;52.126;11.616;2024-02-28T01:33:34;27.50;;;13.37;;
18364;SDS011;9309;52.126;11.616;2024-02-28T01:36:01;28.50;;;13.33;;
18364;SDS011;9309;52.126;11.616;2024-02-28T01:38:29;29.40;;;13.60;;
18364;SDS011;9309;52.126;11.616;2024-02-28T01:40:55;27.17;;;13.00;;
18364;SDS011;9309;52.126;11.616;2024-02-28T01:43:22;27.97;;;12.93;;
18364;SDS011;9309;52.126;11.616;2024-02-28T01:45:49;30.03;;;12.90;;
18364;SDS011;9309;52.126;11.616;2024-02-28T01:48:16;26.53;;;12.93;;
18364;SDS011;9309;52.126;11.616;2024-02-28T01:50:43;30.40;;;12.87;;
18364;SDS011;9309;52.126;11.616;2024-02-28T01:53:10;33.07;;;13.13;;
18364;SDS011;9309;52.126;11.616;2024-02-28T01:55:40;29.97;;;12.50;;
18364;SDS011;9309;52.126;11.616;2024-02-28T01:58:08;27.37;;;12.33;;
18364;SDS011;9309;52.126;11.616;2024-02-28T02:00:34;33.60;;;13.50;;
18364;SDS011;9309;52.126;11.616;2024-02-28T02:03:02;29.43;;;12.90;;
18364;SDS011;9309;52.126;11.616;2024-02-28T02:05:29;27.70;;;12.73;;
18364;SDS011;9309;52.126;11.616;2024-02-28T02:07:56;36.23;;;14.33;;
18364;SDS011;9309;52.126;11.616;2024-02-28T02:10:24;31.17;;;13.47;;
18364;SDS011;9309;52.126;11.616;2024-02-28T02:12:52;30.40;;;12.93;;
18364;SDS011;9309;52.126;11.616;2024-02-28T02:15:19;28.53;;;13.40;;
18364;SDS011;9309;52.126;11.616;2024-02-28T02:17:46;29.63;;;12.40;;
18364;SDS011;9309;52.126;11.616;2024-02-28T02:20:14;33.07;;;11.73;;
18364;SDS011;9309;52.126;11.616;2024-02-28T02:22:42;34.03;;;12.80;;
18364;SDS011;9309;52.126;11.616;2024-02-28T02:25:09;31.70;;;12.70;;
18364;SDS011;9309;52.126;11.616;2024-02-28T02:27:35;29.40;;;12.80;;
18364;SDS011;9309;52.126;11.616;2024-02-28T02:30:02;27.20;;;11.93;;
18364;SDS011;9309;52.126;11.616;2024-02-28T02:32:30;29.13;;;13.13;;
18364;SDS011;9309;52.126;11.616;2024-02-28T02:34:56;26.57;;;11.53;;
18364;SDS011;9309;52.126;11.616;2024-02-28T02:37:23;24.53;;;11.77;;
18364;SDS011;9309;52.126;11.616;2024-02-28T02:39:52;30.47;;;12.17;;
18364;SDS011;9309;52.126;11.616;2024-02-28T02:42:19;27.10;;;11.37;;
18364;SDS011;9309;52.126;11.616;2024-02-28T02:44:45;24.73;;;11.63;;
18364;SDS011;9309;52.126;11.616;2024-02-28T02:47:12;27.90;;;11.33;;
18364;SDS011;9309;52.126;11.616;2024-02-28T02:49:39;28.50;;;11.53;;
18364;SDS011;9309;52.126;11.616;2024-02-28T02:52:05;28.83;;;12.13;;
18364;SDS011;9309;52.126;11.616;2024-02-28T02:54:32;25.17;;;11.77;;
18364;SDS011;9309;52.126;11.616;2024-02-28T02:57:00;28.90;;;12.17;;
18364;SDS011;9309;52.126;11.616;2024-02-28T02:59:27;23.73;;;11.53;;
18364;SDS011;9309;52.126;11.616;2024-02-28T03:01:53;25.30;;;11.63;;
18364;SDS011;9309;52.126;11.616;2024-02-28T03:04:20;21.93;;;10.90;;
18364;SDS011;9309;52.126;11.616;2024-02-28T03:06:46;22.60;;;11.17;;
18364;SDS011;9309;52.126;11.616;2024-02-28T03:09:13;24.90;;;10.93;;
18364;SDS011;9309;52.126;11.616;2024-02-28T03:11:40;31.73;;;12.27;;
18364;SDS011;9309;52.126;11.616;2024-02-28T03:14:08;20.17;;;10.93;;
18364;SDS011;9309;52.126;11.616;2024-02-28T03:16:34;23.83;;;10.83;;
18364;SDS011;9309;52.126;11.616;2024-02-28T03:19:02;28.47;;;11.70;;
18364;SDS011;9309;52.126;11.616;2024-02-28T03:21:30;23.67;;;12.27;;
18364;SDS011;9309;52.126;11.616;2024-02-28T03:23:56;22.63;;;10.70;;
18364;SDS011;9309;52.126;11.616;2024-02-28T03:26:23;25.20;;;10.60;;
18364;SDS011;9309;52.126;11.616;2024-02-28T03:28:50;20.43;;;10.00;;
18364;SDS011;9309;52.126;11.616;2024-02-28T03:31:18;22.27;;;10.83;;
18364;SDS011;9309;52.126;11.616;2024-02-28T03:33:44;25.47;;;10.77;;
18364;SDS011;9309;52.126;11.616;2024-02-28T03:36:12;22.73;;;10.97;;
18364;SDS011;9309;52.126;11.616;2024-02-28T03:38:38;23.03;;;11.57;;
18364;SDS011;9309;52.126;11.616;2024-02-28T03:41:06;21.90;;;10.43;;
18364;SDS011;9309;52.126;11.616;2024-02-28T03:43:32;18.07;;;10.83;;
18364;SDS011;9309;52.126;11.616;2024-02-28T03:45:59;20.50;;;10.50;;
18364;SDS011;9309;52.126;11.616;2024-02-28T03:48:27;21.30;;;10.27;;
18364;SDS011;9309;52.126;11.616;2024-02-28T03:50:53;21.63;;;9.67;;
18364;SDS011;9309;52.126;11.616;2024-02-28T03:53:20;20.37;;;10.37;;
18364;SDS011;9309;52.126;11.616;2024-02-28T03:55:47;21.17;;;10.57;;
18364;SDS011;9309;52.126;11.616;2024-02-28T03:58:13;21.03;;;10.37;;
18364;SDS011;9309;52.126;11.616;2024-02-28T04:00:40;24.00;;;10.83;;
18364;SDS011;9309;52.126;11.616;2024-02-28T04:03:09;21.53;;;10.50;;
18364;SDS011;9309;52.126;11.616;2024-02-28T04:05:37;17.43;;;10.13;;
18364;SDS011;9309;52.126;11.616;2024-02-28T04:08:04;20.27;;;10.33;;
18364;SDS011;9309;52.126;11.616;2024-02-28T04:10:31;21.23;;;10.63;;
18364;SDS011;9309;52.126;11.616;2024-02-28T04:12:57;20.57;;;10.77;;
18364;SDS011;9309;52.126;11.616;2024-02-28T04:15:24;21.80;;;10.57;;
18364;SDS011;9309;52.126;11.616;2024-02-28T04:17:51;24.73;;;10.93;;
18364;SDS011;9309;52.126;11.616;2024-02-28T04:20:18;17.97;;;10.13;;
18364;SDS011;9309;52.126;11.616;2024-02-28T04:22:46;24.73;;;11.03;;
18364;SDS011;9309;52.126;11.616;2024-02-28T04:25:12;20.60;;;9.57;;
18364;SDS011;9309;52.126;11.616;2024-02-28T04:27:39;25.47;;;11.43;;
18364;SDS011;9309;52.126;11.616;2024-02-28T04:30:06;22.47;;;10.43;;
18364;SDS011;9309;52.126;11.616;2024-02-28T04:32:33;21.37;;;11.20;;
18364;SDS011;9309;52.126;11.616;2024-02-28T04:35:00;24.00;;;10.97;;
18364;SDS011;9309;52.126;11.616;2024-02-28T04:37:27;23.17;;;11.27;;
18364;SDS011;9309;52.126;11.616;2024-02-28T04:39:55;21.13;;;10.87;;
18364;SDS011;9309;52.126;11.616;2024-02-28T04:42:22;16.07;;;9.73;;
18364;SDS011;9309;52.126;11.616;2024-02-28T04:44:48;21.47;;;10.00;;
18364;SDS011;9309;52.126;11.616;2024-02-28T04:47:15;21.73;;;10.97;;
18364;SDS011;9309;52.126;11.616;2024-02-28T04:49:42;19.13;;;9.70;;
18364;SDS011;9309;52.126;11.616;2024-02-28T04:52:08;21.50;;;10.23;;
18364;SDS011;9309;52.126;11.616;2024-02-28T04:54:35;18.80;;;10.93;;
18364;SDS011;9309;52.126;11.616;2024-02-28T04:57:03;22.27;;;11.23;;
18364;SDS011;9309;52.126;11.616;2024-02-28T04:59:30;23.13;;;10.53;;
18364;SDS011;9309;52.126;11.616;2024-02-28T05:01:57;20.03;;;10.73;;
18364;SDS011;9309;52.126;11.616;2024-02-28T05:04:23;23.90;;;11.63;;
18364;SDS011;9309;52.126;11.616;2024-02-28T05:06:50;16.87;;;9.43;;
18364;SDS011;9309;52.126;11.616;2024-02-28T05:09:16;22.43;;;10.40;;
18364;SDS011;9309;52.126;11.616;2024-02-28T05:11:43;19.00;;;9.20;;
18364;SDS011;9309;52.126;11.616;2024-02-28T05:14:12;19.87;;;9.67;;
18364;SDS011;9309;52.126;11.616;2024-02-28T05:16:38;20.90;;;10.33;;
18364;SDS011;9309;52.126;11.616;2024-02-28T05:19:05;21.33;;;10.83;;
18364;SDS011;9309;52.126;11.616;2024-02-28T05:21:31;20.23;;;10.03;;
18364;SDS011;9309;52.126;11.616;2024-02-28T05:23:59;19.17;;;10.07;;
18364;SDS011;9309;52.126;11.616;2024-02-28T05:26:25;19.67;;;10.73;;
18364;SDS011;9309;52.126;11.616;2024-02-28T05:28:52;20.47;;;10.50;;
18364;SDS011;9309;52.126;11.616;2024-02-28T05:31:21;26.50;;;11.20;;
18364;SDS011;9309;52.126;11.616;2024-02-28T05:33:48;19.53;;;10.53;;
18364;SDS011;9309;52.126;11.616;2024-02-28T05:36:16;20.47;;;11.47;;
18364;SDS011;9309;52.126;11.616;2024-02-28T05:38:43;19.03;;;11.20;;
18364;SDS011;9309;52.126;11.616;2024-02-28T05:41:09;20.43;;;11.27;;
18364;SDS011;9309;52.126;11.616;2024-02-28T05:43:36;21.13;;;11.57;;
18364;SDS011;9309;52.126;11.616;2024-02-28T05:46:03;21.00;;;10.87;;
18364;SDS011;9309;52.126;11.616;2024-02-28T05:48:31;21.87;;;12.03;;
18364;SDS011;9309;52.126;11.616;2024-02-28T05:51:00;25.00;;;11.70;;
18364;SDS011;9309;52.126;11.616;2024-02-28T05:53:27;22.73;;;12.23;;
18364;SDS011;9309;52.126;11.616;2024-02-28T05:55:57;23.17;;;12.53;;
18364;SDS011;9309;52.126;11.616;2024-02-28T05:58:24;22.07;;;11.80;;
18364;SDS011;9309;52.126;11.616;2024-02-28T06:00:51;25.13;;;12.43;;
18364;SDS011;9309;52.126;11.616;2024-02-28T06:03:17;25.47;;;12.13;;
18364;SDS011;9309;52.126;11.616;2024-02-28T06:05:45;21.33;;;11.97;;
18364;SDS011;9309;52.126;11.616;2024-02-28T06:08:13;19.83;;;12.00;;
18364;SDS011;9309;52.126;11.616;2024-02-28T06:10:40;20.80;;;11.60;;
18364;SDS011;9309;52.126;11.616;2024-02-28T06:13:07;22.73;;;11.37;;
18364;SDS011;9309;52.126;11.616;2024-02-28T06:15:34;20.90;;;11.73;;
18364;SDS011;9309;52.126;11.616;2024-02-28T06:18:00;24.90;;;12.10;;
18364;SDS011;9309;52.126;11.616;2024-02-28T06:20:27;20.00;;;10.93;;
18364;SDS011;9309;52.126;11.616;2024-02-28T06:22:55;19.17;;;10.10;;
18364;SDS011;9309;52.126;11.616;2024-02-28T06:25:22;20.80;;;10.80;;
18364;SDS011;9309;52.126;11.616;2024-02-28T06:27:49;20.83;;;11.23;;
18364;SDS011;9309;52.126;11.616;2024-02-28T06:30:16;18.07;;;10.73;;
18364;SDS011;9309;52.126;11.616;2024-02-28T06:32:43;21.87;;;11.10;;
18364;SDS011;9309;52.126;11.616;2024-02-28T06:35:09;16.80;;;10.13;;
18364;SDS011;9309;52.126;11.616;2024-02-28T06:37:36;21.10;;;10.17;;
18364;SDS011;9309;52.126;11.616;2024-02-28T06:40:05;20.60;;;10.87;;
18364;SDS011;9309;52.126;11.616;2024-02-28T06:42:34;17.83;;;9.67;;
18364;SDS011;9309;52.126;11.616;2024-02-28T06:45:01;20.33;;;10.47;;
18364;SDS011;9309;52.126;11.616;2024-02-28T06:47:29;18.10;;;10.80;;
18364;SDS011;9309;52.126;11.616;2024-02-28T06:49:57;16.67;;;9.70;;
18364;SDS011;9309;52.126;11.616;2024-02-28T06:52:24;16.23;;;9.77;;
18364;SDS011;9309;52.126;11.616;2024-02-28T06:54:50;15.90;;;8.87;;
18364;SDS011;9309;52.126;11.616;2024-02-28T06:57:18;15.53;;;9.00;;
18364;SDS011;9309;52.126;11.616;2024-02-28T06:59:45;16.33;;;9.33;;
18364;SDS011;9309;52.126;11.616;2024-02-28T07:02:12;16.97;;;9.43;;
18364;SDS011;9309;52.126;11.616;2024-02-28T07:04:39;12.70;;;8.30;;
18364;SDS011;9309;52.126;11.616;2024-02-28T07:07:07;14.83;;;8.37;;
18364;SDS011;9309;52.126;11.616;2024-02-28T07:09:33;17.77;;;9.20;;
18364;SDS011;9309;52.126;11.616;2024-02-28T07:12:00;16.63;;;8.73;;
18364;SDS011;9309;52.126;11.616;2024-02-28T07:14:28;12.33;;;8.97;;
18364;SDS011;9309;52.126;11.616;2024-02-28T07:16:55;16.37;;;9.57;;
18364;SDS011;9309;52.126;11.616;2024-02-28T07:19:22;15.33;;;9.70;;
18364;SDS011;9309;52.126;11.616;2024-02-28T07:21:48;15.53;;;9.37;;
18364;SDS011;9309;52.126;11.616;2024-02-28T07:24:15;17.80;;;10.17;;
18364;SDS011;9309;52.126;11.616;2024-02-28T07:26:42;17.97;;;9.37;;
18364;SDS011;9309;52.126;11.616;2024-02-28T07:29:08;20.50;;;10.17;;
18364;SDS011;9309;52.126;11.616;2024-02-28T07:31:36;19.53;;;10.57;;
18364;SDS011;9309;52.126;11.616;2024-02-28T07:34:03;20.43;;;9.70;;
18364;SDS011;9309;52.126;11.616;2024-02-28T07:36:30;21.23;;;10.03;;
18364;SDS011;9309;52.126;11.616;2024-02-28T07:38:56;16.03;;;9.40;;
18364;SDS011;9309;52.126;11.616;2024-02-28T07:41:23;19.97;;;9.90;;
18364;SDS011;9309;52.126;11.616;2024-02-28T07:43:50;18.70;;;9.70;;
18364;SDS011;9309;52.126;11.616;2024-02-28T07:46:16;19.03;;;10.33;;
18364;SDS011;9309;52.126;11.616;2024-02-28T07:48:44;16.33;;;9.57;;
18364;SDS011;9309;52.126;11.616;2024-02-28T07:51:11;19.37;;;10.37;;
18364;SDS011;9309;52.126;11.616;2024-02-28T07:53:37;22.87;;;10.80;;
18364;SDS011;9309;52.126;11.616;2024-02-28T07:56:05;19.77;;;10.17;;
18364;SDS011;9309;52.126;11.616;2024-02-28T07:58:31;21.77;;;11.20;;
18364;SDS011;9309;52.126;11.616;2024-02-28T08:00:58;25.60;;;12.13;;
18364;SDS011;9309;52.126;11.616;2024-02-28T08:03:25;24.33;;;12.20;;
18364;SDS011;9309;52.126;11.616;2024-02-28T08:05:53;23.10;;;11.40;;
18364;SDS011;9309;52.126;11.616;2024-02-28T08:08:20;25.67;;;12.67;;
18364;SDS011;9309;52.126;11.616;2024-02-28T08:10:47;23.63;;;12.13;;
18364;SDS011;9309;52.126;11.616;2024-02-28T08:13:14;26.33;;;12.23;;
18364;SDS011;9309;52.126;11.616;2024-02-28T08:15:40;22.63;;;12.00;;
18364;SDS011;9309;52.126;11.616;2024-02-28T08:18:07;21.67;;;11.93;;
18364;SDS011;9309;52.126;11.616;2024-02-28T08:20:36;27.67;;;13.17;;
18364;SDS011;9309;52.126;11.616;2024-02-28T08:23:04;24.13;;;12.00;;
18364;SDS011;9309;52.126;11.616;2024-02-28T08:25:31;32.57;;;13.33;;
18364;SDS011;9309;52.126;11.616;2024-02-28T08:27:57;31.63;;;15.17;;
18364;SDS011;9309;52.126;11.616;2024-02-28T10:37:57;33.70;;;16.30;;
18364;SDS011;9309;52.126;11.616;2024-02-28T10:40:26;31.87;;;16.00;;
18364;SDS011;9309;52.126;11.616;2024-02-28T10:42:54;33.10;;;16.27;;
18364;SDS011;9309;52.126;11.616;2024-02-28T10:45:23;38.90;;;17.33;;
18364;SDS011;9309;52.126;11.616;2024-02-28T10:47:50;33.83;;;15.80;;
18364;SDS011;9309;52.126;11.616;2024-02-28T10:50:17;34.93;;;16.33;;
18364;SDS011;9309;52.126;11.616;2024-02-28T10:52:44;32.20;;;16.63;;
18364;SDS011;9309;52.126;11.616;2024-02-28T10:55:12;33.87;;;17.17;;
18364;SDS011;9309;52.126;11.616;2024-02-28T10:57:43;33.37;;;16.43;;
18364;SDS011;9309;52.126;11.616;2024-02-28T11:00:16;30.63;;;15.43;;
18364;SDS011;9309;52.126;11.616;2024-02-28T11:02:44;34.10;;;16.70;;
18364;SDS011;9309;52.126;11.616;2024-02-28T11:05:11;28.47;;;14.03;;
18364;SDS011;9309;52.126;11.616;2024-02-28T11:07:40;41.17;;;17.20;;
18364;SDS011;9309;52.126;11.616;2024-02-28T11:10:07;31.90;;;15.20;;
18364;SDS011;9309;52.126;11.616;2024-02-28T11:12:36;33.83;;;15.03;;
18364;SDS011;9309;52.126;11.616;2024-02-28T11:15:04;33.50;;;16.17;;
18364;SDS011;9309;52.126;11.616;2024-02-28T11:17:32;30.97;;;15.70;;
18364;SDS011;9309;52.126;11.616;2024-02-28T11:19:59;33.27;;;15.93;;
18364;SDS011;9309;52.126;11.616;2024-02-28T11:22:27;26.40;;;14.57;;
18364;SDS011;9309;52.126;11.616;2024-02-28T11:24:54;30.10;;;14.97;;
18364;SDS011;9309;52.126;11.616;2024-02-28T11:27:22;32.43;;;16.20;;
18364;SDS011;9309;52.126;11.616;2024-02-28T11:29:48;31.83;;;16.77;;
18364;SDS011;9309;52.126;11.616;2024-02-28T11:32:17;34.93;;;17.00;;
18364;SDS011;9309;52.126;11.616;2024-02-28T11:34:43;35.03;;;18.03;;
18364;SDS011;9309;52.126;11.616;2024-02-28T13:54:33;30.83;;;15.93;;
18364;SDS011;9309;52.126;11.616;2024-02-28T13:57:00;33.17;;;15.57;;
18364;SDS011;9309;52.126;11.616;2024-02-28T13:59:29;37.23;;;16.47;;
18364;SDS011;9309;52.126;11.616;2024-02-28T14:01:56;28.63;;;14.60;;
18364;SDS011;9309;52.126;11.616;2024-02-28T14:04:22;29.67;;;16.00;;
18364;SDS011;9309;52.126;11.616;2024-02-28T14:06:50;33.37;;;16.23;;
18364;SDS011;9309;52.126;11.616;2024-02-28T14:09:16;37.47;;;15.90;;
18364;SDS011;9309;52.126;11.616;2024-02-28T14:11:43;30.73;;;14.60;;
18364;SDS011;9309;52.126;11.616;2024-02-28T14:14:10;31.47;;;15.20;;
18364;SDS011;9309;52.126;11.616;2024-02-28T14:16:37;33.27;;;16.47;;
18364;SDS011;9309;52.126;11.616;2024-02-28T14:26:26;32.90;;;15.73;;
18364;SDS011;9309;52.126;11.616;2024-02-28T14:28:52;31.53;;;14.50;;
18364;SDS011;9309;52.126;11.616;2024-02-28T14:31:20;33.47;;;16.00;;
18364;SDS011;9309;52.126;11.616;2024-02-28T14:33:48;38.00;;;15.73;;
18364;SDS011;9309;52.126;11.616;2024-02-28T14:36:14;31.67;;;15.17;;
18364;SDS011;9309;52.126;11.616;2024-02-28T14:38:42;34.47;;;15.40;;
18364;SDS011;9309;52.126;11.616;2024-02-28T14:41:10;35.60;;;16.77;;
18364;SDS011;9309;52.126;11.616;2024-02-28T14:43:38;36.37;;;15.87;;
18364;SDS011;9309;52.126;11.616;2024-02-28T14:46:04;35.50;;;14.97;;
18364;SDS011;9309;52.126;11.616;2024-02-28T15:13:04;39.43;;;15.53;;
18364;SDS011;9309;52.126;11.616;2024-02-28T15:15:35;34.73;;;13.90;;
18364;SDS011;9309;52.126;11.616;2024-02-28T15:18:02;36.70;;;15.13;;
18364;SDS011;9309;52.126;11.616;2024-02-28T15:20:29;31.27;;;14.80;;
18364;SDS011;9309;52.126;11.616;2024-02-28T15:22:55;37.57;;;15.80;;
18364;SDS011;9309;52.126;11.616;2024-02-28T15:25:22;34.43;;;15.13;;
18364;SDS011;9309;52.126;11.616;2024-02-28T15:27:49;36.60;;;15.83;;
18364;SDS011;9309;52.126;11.616;2024-02-28T15:30:16;39.07;;;15.20;;
18364;SDS011;9309;52.126;11.616;2024-02-28T15:32:44;39.93;;;15.87;;
18364;SDS011;9309;52.126;11.616;2024-02-28T15:35:11;37.63;;;15.87;;
18364;SDS011;9309;52.126;11.616;2024-02-28T15:37:37;36.70;;;16.57;;
18364;SDS011;9309;52.126;11.616;2024-02-28T15:40:04;34.13;;;15.60;;
18364;SDS011;9309;52.126;11.616;2024-02-28T15:42:31;34.43;;;15.60;;
18364;SDS011;9309;52.126;11.616;2024-02-28T15:44:58;40.10;;;16.93;;
18364;SDS011;9309;52.126;11.616;2024-02-28T15:47:25;43.03;;;16.70;;
18364;SDS011;9309;52.126;11.616;2024-02-28T15:49:53;41.37;;;16.87;;
18364;SDS011;9309;52.126;11.616;2024-02-28T15:52:20;38.90;;;15.50;;
18364;SDS011;9309;52.126;11.616;2024-02-28T15:54:46;39.40;;;15.77;;
18364;SDS011;9309;52.126;11.616;2024-02-28T15:57:13;34.20;;;14.73;;
18364;SDS011;9309;52.126;11.616;2024-02-28T15:59:40;35.23;;;15.77;;
18364;SDS011;9309;52.126;11.616;2024-02-28T16:02:06;34.37;;;15.43;;
18364;SDS011;9309;52.126;11.616;2024-02-28T16:04:36;38.73;;;15.30;;
18364;SDS011;9309;52.126;11.616;2024-02-28T16:07:04;34.43;;;15.37;;
18364;SDS011;9309;52.126;11.616;2024-02-28T16:09:32;37.10;;;16.67;;
18364;SDS011;9309;52.126;11.616;2024-02-28T16:11:59;40.20;;;15.87;;
18364;SDS011;9309;52.126;11.616;2024-02-28T16:14:27;41.10;;;16.80;;
18364;SDS011;9309;52.126;11.616;2024-02-28T16:16:54;36.33;;;15.27;;
18364;SDS011;9309;52.126;11.616;2024-02-28T16:19:21;36.47;;;16.77;;
18364;SDS011;9309;52.126;11.616;2024-02-28T16:21:47;41.97;;;17.53;;
18364;SDS011;9309;52.126;11.616;2024-02-28T16:24:18;43.93;;;17.30;;
18364;SDS011;9309;52.126;11.616;2024-02-28T16:26:44;34.70;;;15.13;;
18364;SDS011;9309;52.126;11.616;2024-02-28T16:29:11;39.73;;;16.80;;
18364;SDS011;9309;52.126;11.616;2024-02-28T16:31:38;39.30;;;15.87;;
18364;SDS011;9309;52.126;11.616;2024-02-28T16:34:05;41.60;;;16.57;;
18364;SDS011;9309;52.126;11.616;2024-02-28T16:36:31;39.50;;;16.47;;
18364;SDS011;9309;52.126;11.616;2024-02-28T16:38:58;35.67;;;15.03;;
18364;SDS011;9309;52.126;11.616;2024-02-28T16:41:26;44.53;;;15.93;;
18364;SDS011;9309;52.126;11.616;2024-02-28T16:43:53;39.20;;;15.87;;
18364;SDS011;9309;52.126;11.616;2024-02-28T16:46:22;37.43;;;15.83;;
18364;SDS011;9309;52.126;11.616;2024-02-28T16:48:49;43.17;;;16.30;;
18364;SDS011;9309;52.126;11.616;2024-02-28T16:51:15;41.00;;;16.73;;
18364;SDS011;9309;52.126;11.616;2024-02-28T16:53:44;46.27;;;18.00;;
18364;SDS011;9309;52.126;11.616;2024-02-28T16:56:10;43.07;;;16.70;;
18364;SDS011;9309;52.126;11.616;2024-02-28T16:58:38;41.50;;;16.97;;
18364;SDS011;9309;52.126;11.616;2024-02-28T17:01:07;36.83;;;16.77;;
18364;SDS011;9309;52.126;11.616;2024-02-28T17:03:34;43.60;;;16.77;;
18364;SDS011;9309;52.126;11.616;2024-02-28T17:06:01;40.93;;;16.60;;
18364;SDS011;9309;52.126;11.616;2024-02-28T17:08:28;45.07;;;18.13;;
18364;SDS011;9309;52.126;11.616;2024-02-28T17:10:57;48.83;;;17.67;;
18364;SDS011;9309;52.126;11.616;2024-02-28T17:13:24;42.20;;;17.37;;
18364;SDS011;9309;52.126;11.616;2024-02-28T17:15:52;48.37;;;17.60;;
18364;SDS011;9309;52.126;11.616;2024-02-28T17:18:21;45.87;;;16.87;;
18364;SDS011;9309;52.126;11.616;2024-02-28T17:20:48;46.33;;;17.13;;
18364;SDS011;9309;52.126;11.616;2024-02-28T17:23:15;41.43;;;17.37;;
18364;SDS011;9309;52.126;11.616;2024-02-28T17:25:41;45.43;;;18.13;;
18364;SDS011;9309;52.126;11.616;2024-02-28T17:28:08;41.13;;;14.87;;
18364;SDS011;9309;52.126;11.616;2024-02-28T17:30:38;45.07;;;17.27;;
18364;SDS011;9309;52.126;11.616;2024-02-28T17:33:06;47.00;;;18.40;;
18364;SDS011;9309;52.126;11.616;2024-02-28T17:35:33;52.33;;;18.80;;
18364;SDS011;9309;52.126;11.616;2024-02-28T17:37:59;50.53;;;18.67;;
18364;SDS011;9309;52.126;11.616;2024-02-28T17:40:27;45.87;;;17.83;;
18364;SDS011;9309;52.126;11.616;2024-02-28T17:42:53;48.97;;;18.53;;
18364;SDS011;9309;52.126;11.616;2024-02-28T17:45:20;43.63;;;18.13;;
18364;SDS011;9309;52.126;11.616;2024-02-28T17:47:47;47.10;;;18.97;;
18364;SDS011;9309;52.126;11.616;2024-02-28T17:50:15;48.23;;;18.60;;
18364;SDS011;9309;52.126;11.616;2024-02-28T17:52:42;45.33;;;17.80;;
18364;SDS011;9309;52.126;11.616;2024-02-28T17:55:09;48.50;;;19.23;;
18364;SDS011;9309;52.126;11.616;2024-02-28T17:57:36;49.13;;;18.67;;
18364;SDS011;9309;52.126;11.616;2024-02-28T18:00:03;45.17;;;19.13;;
18364;SDS011;9309;52.126;11.616;2024-02-28T18:02:32;53.30;;;20.30;;
18364;SDS011;9309;52.126;11.616;2024-02-28T18:04:58;51.20;;;20.37;;
18364;SDS011;9309;52.126;11.616;2024-02-28T18:07:25;50.03;;;19.33;;
18364;SDS011;9309;52.126;11.616;2024-02-28T18:09:52;45.83;;;18.87;;
18364;SDS011;9309;52.126;11.616;2024-02-28T18:12:19;51.93;;;19.57;;
18364;SDS011;9309;52.126;11.616;2024-02-28T18:14:46;51.43;;;19.87;;
18364;SDS011;9309;52.126;11.616;2024-02-28T18:17:12;47.43;;;19.63;;
18364;SDS011;9309;52.126;11.616;2024-02-28T18:19:39;54.30;;;19.33;;
18364;SDS011;9309;52.126;11.616;2024-02-28T18:22:06;46.77;;;18.57;;
18364;SDS011;9309;52.126;11.616;2024-02-28T18:24:35;43.43;;;17.87;;
18364;SDS011;9309;52.126;11.616;2024-02-28T18:27:01;50.13;;;20.13;;
18364;SDS011;9309;52.126;11.616;2024-02-28T18:29:33;54.03;;;19.43;;
18364;SDS011;9309;52.126;11.616;2024-02-28T18:32:00;51.90;;;18.97;;
18364;SDS011;9309;52.126;11.616;2024-02-28T18:34:27;48.63;;;20.10;;
18364;SDS011;9309;52.126;11.616;2024-02-28T18:36:54;50.00;;;19.43;;
18364;SDS011;9309;52.126;11.616;2024-02-28T18:39:21;58.20;;;20.40;;
18364;SDS011;9309;52.126;11.616;2024-02-28T18:41:49;47.10;;;19.30;;
18364;SDS011;9309;52.126;11.616;2024-02-28T18:44:17;54.57;;;21.00;;
18364;SDS011;9309;52.126;11.616;2024-02-28T18:46:44;50.53;;;19.50;;
18364;SDS011;9309;52.126;11.616;2024-02-28T18:49:10;47.67;;;19.53;;
18364;SDS011;9309;52.126;11.616;2024-02-28T18:51:37;54.83;;;21.03;;
18364;SDS011;9309;52.126;11.616;2024-02-28T18:54:05;53.50;;;19.97;;
18364;SDS011;9309;52.126;11.616;2024-02-28T18:56:31;49.93;;;20.07;;
18364;SDS011;9309;52.126;11.616;2024-02-28T18:58:59;49.90;;;19.63;;
18364;SDS011;9309;52.126;11.616;2024-02-28T19:01:26;53.17;;;20.80;;
18364;SDS011;9309;52.126;11.616;2024-02-28T19:03:53;56.77;;;20.63;;
18364;SDS011;9309;52.126;11.616;2024-02-28T19:06:20;58.23;;;22.00;;
18364;SDS011;9309;52.126;11.616;2024-02-28T19:08:47;56.30;;;20.60;;
18364;SDS011;9309;52.126;11.616;2024-02-28T19:11:17;52.23;;;21.10;;
18364;SDS011;9309;52.126;11.616;2024-02-28T19:13:44;47.90;;;18.87;;
18364;SDS011;9309;52.126;11.616;2024-02-28T19:16:12;55.43;;;20.67;;
18364;SDS011;9309;52.126;11.616;2024-02-28T19:18:39;58.73;;;20.73;;